createdAt,value
2023-03-27T00:01:16.830Z,95232.03
2023-03-27T00:03:44.771Z,95237.03
2023-03-27T00:06:17.008Z,95232.22
2023-03-27T00:08:46.378Z,95235.06
2023-03-27T00:11:14.602Z,95236.38
2023-03-27T00:13:48.997Z,95231.63
2023-03-27T00:16:23.537Z,95242.16
2023-03-27T00:18:51.329Z,95241.06
2023-03-27T00:21:18.271Z,95234.47
2023-03-27T00:23:45.115Z,95236.56
2023-03-27T00:26:12.441Z,95249.63
2023-03-27T00:28:39.405Z,95234.09
2023-03-27T00:31:12.478Z,95233.56
2023-03-27T00:33:40.408Z,95240.19
2023-03-27T00:36:08.221Z,95244.91
2023-03-27T00:38:35.140Z,95242.53
2023-03-27T00:41:02.112Z,95234.72
2023-03-27T00:43:35.633Z,95241.50
2023-03-27T00:46:32.068Z,95242.81
2023-03-27T00:49:04.093Z,95235.84
2023-03-27T00:51:32.080Z,95251.31
2023-03-27T00:53:59.806Z,95252.03
2023-03-27T00:56:26.931Z,95250.84
2023-03-27T00:59:02.050Z,95242.94
2023-03-27T01:01:31.162Z,95241.75
2023-03-27T01:04:04.745Z,95242.22
2023-03-27T01:06:32.927Z,95242.56
2023-03-27T01:08:59.754Z,95247.31
2023-03-27T01:11:41.100Z,95243.78
2023-03-27T01:14:32.642Z,95247.81
2023-03-27T01:17:13.898Z,95242.25
2023-03-27T01:19:54.256Z,95235.25
2023-03-27T01:22:39.234Z,95234.06
2023-03-27T01:25:51.053Z,95230.94
2023-03-27T01:28:45.949Z,95239.75
2023-03-27T01:31:31.874Z,95238.34
2023-03-27T01:35:01.541Z,95231.25
2023-03-27T01:37:47.642Z,95234.91
2023-03-27T01:40:43.792Z,95238.59
2023-03-27T01:43:26.490Z,95235.50
2023-03-27T01:46:21.717Z,95239.28
2023-03-27T01:49:13.344Z,95243.34
2023-03-27T01:51:47.142Z,95242.66
2023-03-27T01:54:36.238Z,95247.50
2023-03-27T01:57:29.635Z,95262.03
2023-03-27T02:00:18.691Z,95258.25
2023-03-27T02:03:10.173Z,95257.41
2023-03-27T02:05:56.533Z,95263.38
2023-03-27T02:08:31.210Z,95259.94
2023-03-27T02:10:59.865Z,95249.56
2023-03-27T02:13:43.617Z,95254.66
2023-03-27T02:16:17.762Z,95263.94
2023-03-27T02:18:52.461Z,95262.41
2023-03-27T02:21:19.263Z,95256.22
2023-03-27T02:23:47.613Z,95253.09
2023-03-27T02:26:14.582Z,95264.91
2023-03-27T02:28:53.933Z,95263.47
2023-03-27T02:32:03.383Z,95269.56
2023-03-27T02:34:58.700Z,95272.00
2023-03-27T02:37:54.161Z,95272.28
2023-03-27T02:40:59.280Z,95282.00
2023-03-27T02:43:42.886Z,95278.38
2023-03-27T02:46:19.796Z,95283.09
2023-03-27T02:48:52.183Z,95286.31
2023-03-27T02:51:28.352Z,95289.47
2023-03-27T02:54:04.478Z,95291.75
2023-03-27T02:56:38.345Z,95287.69
2023-03-27T02:59:10.572Z,95296.66
2023-03-27T03:01:39.380Z,95292.91
2023-03-27T03:04:20.042Z,95303.00
2023-03-27T03:06:47.051Z,95298.72
2023-03-27T03:09:14.904Z,95302.03
2023-03-27T03:11:51.381Z,95298.31
2023-03-27T03:14:25.484Z,95304.47
2023-03-27T03:16:52.322Z,95304.94
2023-03-27T03:19:19.187Z,95314.38
2023-03-27T03:21:46.958Z,95313.75
2023-03-27T03:24:13.791Z,95308.22
2023-03-27T03:26:40.655Z,95305.81
2023-03-27T03:29:07.775Z,95319.69
2023-03-27T03:31:43.710Z,95320.63
2023-03-27T03:34:12.632Z,95325.75
2023-03-27T03:36:41.931Z,95316.81
2023-03-27T03:39:09.379Z,95333.25
2023-03-27T03:41:36.220Z,95328.16
2023-03-27T03:44:03.223Z,95330.91
2023-03-27T03:46:30.164Z,95324.47
2023-03-27T03:48:58.910Z,95337.72
2023-03-27T03:51:26.362Z,95340.00
2023-03-27T03:53:53.329Z,95336.06
2023-03-27T03:56:21.234Z,95335.22
2023-03-27T03:58:48.149Z,95340.47
2023-03-27T04:01:15.012Z,95350.91
2023-03-27T04:03:42.237Z,95351.34
2023-03-27T04:06:10.828Z,95351.75
2023-03-27T04:08:38.047Z,95354.59
2023-03-27T04:11:05.927Z,95358.38
2023-03-27T04:13:32.890Z,95361.06
2023-03-27T04:16:01.633Z,95363.19
2023-03-27T04:18:33.017Z,95363.47
2023-03-27T04:20:59.996Z,95352.63
2023-03-27T04:23:33.791Z,95363.75
2023-03-27T04:26:03.282Z,95370.97
2023-03-27T04:28:34.375Z,95380.38
2023-03-27T04:31:07.045Z,95385.91
2023-03-27T04:33:46.320Z,95390.53
2023-03-27T04:36:17.238Z,95393.44
2023-03-27T04:38:45.598Z,95404.41
2023-03-27T04:41:12.605Z,95421.34
2023-03-27T04:43:41.503Z,95419.75
2023-03-27T04:46:08.797Z,95424.94
2023-03-27T04:48:38.488Z,95432.00
2023-03-27T04:51:06.859Z,95444.09
2023-03-27T04:53:36.131Z,95463.22
2023-03-27T04:56:04.760Z,95462.41
2023-03-27T04:58:32.241Z,95479.22
2023-03-27T05:00:59.231Z,95480.88
2023-03-27T05:03:27.672Z,95485.75
2023-03-27T05:05:54.801Z,95501.44
2023-03-27T05:08:21.725Z,95510.59
2023-03-27T05:10:48.497Z,95510.97
2023-03-27T05:13:15.523Z,95526.81
2023-03-27T05:15:42.387Z,95530.03
2023-03-27T05:18:09.460Z,95540.28
2023-03-27T05:20:37.039Z,95551.16
2023-03-27T05:23:04.284Z,95565.50
2023-03-27T05:25:32.725Z,95576.06
2023-03-27T05:28:00.703Z,95579.13
2023-03-27T05:30:29.267Z,95588.91
2023-03-27T05:32:59.281Z,95600.72
2023-03-27T05:35:28.410Z,95608.28
2023-03-27T05:37:56.179Z,95625.50
2023-03-27T05:40:25.687Z,95628.00
2023-03-27T05:42:53.963Z,95633.38
2023-03-27T05:45:21.744Z,95641.34
2023-03-27T05:47:56.612Z,95655.47
2023-03-27T05:50:27.054Z,95669.16
2023-03-27T05:53:02.864Z,95674.97
2023-03-27T05:55:30.541Z,95683.81
2023-03-27T05:57:57.610Z,95696.63
2023-03-27T06:00:26.328Z,95699.19
2023-03-27T06:02:58.949Z,95701.22
2023-03-27T06:05:27.762Z,95717.84
2023-03-27T06:07:55.828Z,95716.94
2023-03-27T06:10:22.786Z,95723.94
2023-03-27T06:13:08.760Z,95737.97
2023-03-27T06:15:39.681Z,95738.47
2023-03-27T06:18:06.952Z,95743.31
2023-03-27T06:20:35.369Z,95746.06
2023-03-27T06:23:03.863Z,95766.34
2023-03-27T06:25:34.439Z,95779.34
2023-03-27T06:28:04.693Z,95791.31
2023-03-27T06:30:31.647Z,95791.06
2023-03-27T06:33:00.065Z,95806.50
2023-03-27T06:35:30.768Z,95813.28
2023-03-27T06:38:02.710Z,95811.13
2023-03-27T06:40:31.514Z,95824.44
2023-03-27T06:43:05.834Z,95826.25
2023-03-27T06:45:45.185Z,95836.53
2023-03-27T06:48:20.403Z,95837.25
2023-03-27T06:50:51.849Z,95850.34
2023-03-27T06:53:27.486Z,95853.44
2023-03-27T06:55:56.588Z,95868.75
2023-03-27T06:58:24.074Z,95876.25
2023-03-27T07:00:51.260Z,95869.22
2023-03-27T07:03:21.360Z,95879.44
2023-03-27T07:05:49.098Z,95895.00
2023-03-27T07:08:24.145Z,95892.34
2023-03-27T07:11:07.944Z,95898.00
2023-03-27T07:13:40.879Z,95916.25
2023-03-27T07:16:10.256Z,95917.34
2023-03-27T07:18:37.230Z,95923.88
2023-03-27T07:21:04.523Z,95935.94
2023-03-27T07:23:31.643Z,95919.63
2023-03-27T07:25:59.869Z,95940.28
2023-03-27T07:28:27.052Z,95940.78
2023-03-27T07:30:53.861Z,95961.00
2023-03-27T07:33:22.093Z,95963.56
2023-03-27T07:35:49.018Z,95962.00
2023-03-27T07:38:17.363Z,95982.50
2023-03-27T07:40:46.478Z,95984.53
2023-03-27T07:43:14.102Z,95987.72
2023-03-27T07:45:41.978Z,95993.41
2023-03-27T07:48:18.657Z,96007.66
2023-03-27T07:50:46.335Z,96012.19
2023-03-27T07:53:32.676Z,96024.56
2023-03-27T07:56:00.435Z,96034.50
2023-03-27T07:58:27.426Z,96036.50
2023-03-27T08:00:54.704Z,96041.00
2023-03-27T08:03:22.137Z,96040.47
2023-03-27T08:05:58.059Z,96059.75
2023-03-27T08:08:26.358Z,96073.00
2023-03-27T08:10:57.661Z,96080.97
2023-03-27T08:13:24.704Z,96081.00
2023-03-27T08:15:51.882Z,96084.13
2023-03-27T08:18:18.986Z,96085.31
2023-03-27T08:20:47.808Z,96092.72
2023-03-27T08:23:14.630Z,96103.88
2023-03-27T08:25:42.770Z,96102.03
2023-03-27T08:28:09.740Z,96104.63
2023-03-27T08:30:36.655Z,96111.34
2023-03-27T08:33:03.778Z,96123.09
2023-03-27T08:35:31.133Z,96131.28
2023-03-27T08:37:58.154Z,96131.13
2023-03-27T08:40:28.794Z,96140.34
2023-03-27T08:43:06.252Z,96154.16
2023-03-27T08:45:49.651Z,96152.97
2023-03-27T08:49:12.117Z,96171.41
2023-03-27T08:51:59.860Z,96170.97
2023-03-27T08:54:31.778Z,96187.00
2023-03-27T08:56:59.467Z,96178.81
2023-03-27T08:59:29.664Z,96192.88
2023-03-27T09:02:24.464Z,96197.22
2023-03-27T09:04:56.460Z,96200.59
2023-03-27T09:07:27.279Z,96204.75
2023-03-27T09:10:17.433Z,96207.94
2023-03-27T09:12:58.917Z,96215.34
2023-03-27T09:15:32.581Z,96218.59
2023-03-27T09:18:15.434Z,96227.38
2023-03-27T09:20:51.924Z,96241.38
2023-03-27T09:23:21.805Z,96242.19
2023-03-27T09:25:55.992Z,96244.03
2023-03-27T09:28:35.650Z,96249.56
2023-03-27T09:31:29.807Z,96252.59
2023-03-27T09:34:01.034Z,96256.00
2023-03-27T09:36:28.962Z,96256.34
2023-03-27T09:39:10.448Z,96253.19
2023-03-27T09:41:52.315Z,96265.53
2023-03-27T09:44:27.485Z,96253.75
2023-03-27T09:47:16.402Z,96273.72
2023-03-27T09:49:54.801Z,96269.78
2023-03-27T09:52:37.828Z,96270.84
2023-03-27T09:55:26.988Z,96282.38
2023-03-27T09:58:10.454Z,96280.78
2023-03-27T10:00:37.334Z,96282.88
2023-03-27T10:03:17.634Z,96293.31
2023-03-27T10:05:46.964Z,96294.97
2023-03-27T10:08:46.840Z,96295.94
2023-03-27T10:11:28.382Z,96298.88
2023-03-27T10:13:55.664Z,96302.38
2023-03-27T10:16:23.326Z,96307.34
2023-03-27T10:18:55.641Z,96317.94
2023-03-27T10:21:27.542Z,96317.19
2023-03-27T10:24:02.901Z,96324.06
2023-03-27T10:26:33.305Z,96327.00
2023-03-27T10:29:25.586Z,96339.25
2023-03-27T10:31:58.796Z,96336.25
2023-03-27T10:34:59.092Z,96347.47
2023-03-27T10:37:33.981Z,96343.41
2023-03-27T10:40:03.542Z,96355.13
2023-03-27T10:42:32.423Z,96357.50
2023-03-27T10:45:00.416Z,96354.88
2023-03-27T10:47:32.674Z,96361.91
2023-03-27T10:50:11.364Z,96365.09
2023-03-27T10:53:01.947Z,96373.06
2023-03-27T10:56:30.378Z,96386.09
2023-03-27T10:59:04.832Z,96381.16
2023-03-27T11:01:42.816Z,96381.97
2023-03-27T11:04:28.451Z,96389.81
2023-03-27T11:06:59.630Z,96381.44
2023-03-27T11:09:38.940Z,96384.28
2023-03-27T11:12:11.684Z,96375.31
2023-03-27T11:15:01.645Z,96387.53
2023-03-27T11:17:44.401Z,96398.25
2023-03-27T11:20:24.445Z,96424.13
2023-03-27T11:23:05.501Z,96413.13
2023-03-27T11:26:05.998Z,96412.19
2023-03-27T11:28:42.753Z,96407.31
2023-03-27T11:31:40.123Z,96406.69
2023-03-27T11:34:36.615Z,96407.31
2023-03-27T11:37:21.448Z,96410.56
2023-03-27T11:39:58.602Z,96421.03
2023-03-27T11:42:29.886Z,96411.59
2023-03-27T11:44:57.139Z,96421.94
2023-03-27T11:47:42.203Z,96421.59
2023-03-27T11:50:30.614Z,96428.78
2023-03-27T11:53:51.367Z,96427.06
2023-03-27T11:56:33.070Z,96446.69
2023-03-27T11:59:22.246Z,96445.03
2023-03-27T12:02:27.790Z,96449.44
2023-03-27T12:05:26.078Z,96451.25
2023-03-27T12:08:09.828Z,96445.09
2023-03-27T12:10:39.296Z,96442.78
2023-03-27T12:13:46.146Z,96445.50
2023-03-27T12:16:54.785Z,96444.53
2023-03-27T12:19:29.704Z,96442.63
2023-03-27T12:22:37.926Z,96445.47
2023-03-27T12:25:22.299Z,96450.44
2023-03-27T12:28:02.355Z,96452.81
2023-03-27T12:30:56.818Z,96464.44
2023-03-27T12:33:56.069Z,96458.81
2023-03-27T12:36:26.244Z,96468.19
2023-03-27T12:38:57.676Z,96467.03
2023-03-27T12:41:26.330Z,96467.47
2023-03-27T12:43:59.488Z,96462.94
2023-03-27T12:46:26.523Z,96466.28
2023-03-27T12:49:10.704Z,96460.13
2023-03-27T12:52:04.904Z,96462.44
2023-03-27T12:54:39.347Z,96461.63
2023-03-27T12:57:22.349Z,96466.53
2023-03-27T12:59:52.055Z,96463.91
2023-03-27T13:02:49.723Z,96473.34
2023-03-27T13:05:42.627Z,96471.66
2023-03-27T13:08:37.799Z,96477.53
2023-03-27T13:11:58.398Z,96472.59
2023-03-27T13:15:01.032Z,96479.88
2023-03-27T13:18:20.059Z,96471.38
2023-03-27T13:21:22.996Z,96463.50
2023-03-27T13:23:58.585Z,96467.00
2023-03-27T13:27:00.777Z,96471.13
2023-03-27T13:29:33.134Z,96480.34
2023-03-27T13:32:25.848Z,96495.91
2023-03-27T13:35:21.879Z,96485.97
2023-03-27T13:37:51.764Z,96494.22
2023-03-27T13:40:34.059Z,96503.41
2023-03-27T13:43:21.477Z,96498.53
2023-03-27T13:45:53.093Z,96516.88
2023-03-27T13:48:37.940Z,96530.28
2023-03-27T13:51:22.770Z,96526.09
2023-03-27T13:53:55.447Z,96537.94
2023-03-27T13:56:49.946Z,96530.47
2023-03-27T13:59:59.686Z,96536.22
2023-03-27T14:02:54.117Z,96543.97
2023-03-27T14:05:56.864Z,96542.03
2023-03-27T14:09:08.233Z,96536.28
2023-03-27T14:12:05.429Z,96541.59
2023-03-27T14:15:10.333Z,96526.06
2023-03-27T14:17:40.592Z,96534.09
2023-03-27T14:20:33.371Z,96526.84
2023-03-27T14:23:16.447Z,96536.09
2023-03-27T14:25:53.674Z,96533.06
2023-03-27T14:28:51.321Z,96536.28
2023-03-27T14:31:20.424Z,96532.41
2023-03-27T14:34:25.632Z,96539.53
2023-03-27T14:36:52.673Z,96536.34
2023-03-27T14:39:23.146Z,96550.81
2023-03-27T14:41:55.612Z,96545.47
2023-03-27T14:44:24.831Z,96536.50
2023-03-27T14:47:03.051Z,96533.78
2023-03-27T14:49:46.856Z,96538.84
2023-03-27T14:52:35.197Z,96549.91
2023-03-27T14:55:03.782Z,96548.91
2023-03-27T14:57:30.656Z,96550.28
2023-03-27T14:59:57.949Z,96557.31
2023-03-27T15:02:34.836Z,96579.91
2023-03-27T15:05:12.039Z,96589.00
2023-03-27T15:07:42.040Z,96589.38
2023-03-27T15:10:26.348Z,96579.84
2023-03-27T15:12:55.032Z,96583.97
2023-03-27T15:15:25.760Z,96583.41
2023-03-27T15:17:54.910Z,96574.47
2023-03-27T15:20:27.663Z,96590.03
2023-03-27T15:23:20.238Z,96582.69
2023-03-27T15:26:19.272Z,96598.63
2023-03-27T15:29:08.059Z,96606.75
2023-03-27T15:31:36.814Z,96597.19
2023-03-27T15:34:34.037Z,96611.09
2023-03-27T15:37:06.254Z,96618.13
2023-03-27T15:39:34.413Z,96628.53
2023-03-27T15:42:12.242Z,96628.69
2023-03-27T15:44:41.872Z,96633.72
2023-03-27T15:47:30.215Z,96638.38
2023-03-27T15:50:23.989Z,96631.59
2023-03-27T15:52:53.474Z,96630.94
2023-03-27T15:55:42.250Z,96639.78
2023-03-27T15:58:26.329Z,96642.06
2023-03-27T16:00:59.997Z,96643.56
2023-03-27T16:03:31.166Z,96649.84
2023-03-27T16:05:59.253Z,96644.09
2023-03-27T16:08:36.501Z,96655.41
2023-03-27T16:11:06.268Z,96661.00
2023-03-27T16:13:56.892Z,96673.34
2023-03-27T16:16:29.442Z,96699.66
2023-03-27T16:19:01.664Z,96706.69
2023-03-27T16:21:28.807Z,96715.00
2023-03-27T16:23:56.310Z,96708.66
2023-03-27T16:26:26.581Z,96721.19
2023-03-27T16:29:04.788Z,96735.97
2023-03-27T16:31:31.666Z,96720.22
2023-03-27T16:33:58.763Z,96691.13
2023-03-27T16:36:32.005Z,96695.59
2023-03-27T16:38:58.889Z,96711.88
2023-03-27T16:41:25.696Z,96705.38
2023-03-27T16:43:52.584Z,96702.44
2023-03-27T16:46:28.504Z,96712.56
2023-03-27T16:48:56.798Z,96716.63
2023-03-27T16:51:27.154Z,96718.44
2023-03-27T16:53:54.546Z,96718.75
2023-03-27T16:56:22.119Z,96724.56
2023-03-27T16:58:52.584Z,96724.38
2023-03-27T17:01:19.536Z,96728.25
2023-03-27T17:03:46.752Z,96718.09
2023-03-27T17:06:15.085Z,96739.09
2023-03-27T17:08:42.018Z,96746.91
2023-03-27T17:11:12.364Z,96756.44
2023-03-27T17:13:42.927Z,96759.47
2023-03-27T17:16:10.477Z,96753.72
2023-03-27T17:18:37.485Z,96767.41
2023-03-27T17:21:04.576Z,96757.16
2023-03-27T17:23:31.705Z,96768.06
2023-03-27T17:26:03.716Z,96775.66
2023-03-27T17:28:31.494Z,96772.66
2023-03-27T17:31:04.861Z,96779.94
2023-03-27T17:33:33.047Z,96781.47
2023-03-27T17:36:00.283Z,96774.28
2023-03-27T17:38:27.535Z,96776.22
2023-03-27T17:40:54.395Z,96780.13
2023-03-27T17:43:21.234Z,96787.63
2023-03-27T17:45:49.050Z,96782.31
2023-03-27T17:48:15.968Z,96782.91
2023-03-27T17:50:49.835Z,96795.69
2023-03-27T17:53:26.654Z,96788.31
2023-03-27T17:55:53.834Z,96800.91
2023-03-27T17:58:22.069Z,96798.09
2023-03-27T18:00:49.797Z,96819.28
2023-03-27T18:03:16.832Z,96816.19
2023-03-27T18:05:44.027Z,96825.13
2023-03-27T18:08:13.237Z,96825.63
2023-03-27T18:10:50.243Z,96821.09
2023-03-27T18:13:20.507Z,96819.47
2023-03-27T18:15:55.111Z,96826.38
2023-03-27T18:18:22.208Z,96823.28
2023-03-27T18:20:53.812Z,96829.81
2023-03-27T18:23:21.947Z,96838.22
2023-03-27T18:25:49.094Z,96846.53
2023-03-27T18:28:16.386Z,96847.44
2023-03-27T18:30:44.196Z,96850.88
2023-03-27T18:33:11.553Z,96857.13
2023-03-27T18:35:39.076Z,96853.47
2023-03-27T18:38:06.482Z,96846.41
2023-03-27T18:40:33.599Z,96857.81
2023-03-27T18:43:00.897Z,96859.66
2023-03-27T18:45:27.772Z,96848.03
2023-03-27T18:47:54.586Z,96851.84
2023-03-27T18:50:21.437Z,96858.59
2023-03-27T18:52:48.237Z,96850.19
2023-03-27T18:55:15.129Z,96856.09
2023-03-27T18:57:42.024Z,96858.69
2023-03-27T19:00:17.286Z,96858.69
2023-03-27T19:02:49.316Z,96860.91
2023-03-27T19:05:17.826Z,96858.22
2023-03-27T19:07:45.049Z,96856.03
2023-03-27T19:10:12.801Z,96865.81
2023-03-27T19:12:39.686Z,96869.84
2023-03-27T19:15:19.443Z,96867.78
2023-03-27T19:17:47.220Z,96872.41
2023-03-27T19:20:14.156Z,96873.66
2023-03-27T19:22:40.992Z,96861.97
2023-03-27T19:25:09.124Z,96868.59
2023-03-27T19:27:38.519Z,96859.94
2023-03-27T19:30:08.053Z,96860.25
2023-03-27T19:32:35.062Z,96874.72
2023-03-27T19:35:01.987Z,96875.31
2023-03-27T19:37:29.692Z,96880.78
2023-03-27T19:39:56.995Z,96883.84
2023-03-27T19:42:23.894Z,96879.13
2023-03-27T19:44:50.731Z,96883.75
2023-03-27T19:47:17.602Z,96888.19
2023-03-27T19:49:44.458Z,96894.47
2023-03-27T19:52:11.907Z,96897.59
2023-03-27T19:54:38.753Z,96894.22
2023-03-27T19:57:05.620Z,96882.78
2023-03-27T19:59:32.494Z,96893.59
2023-03-27T20:01:59.539Z,96883.28
2023-03-27T20:04:26.433Z,96897.91
2023-03-27T20:06:53.819Z,96899.50
2023-03-27T20:09:20.848Z,96895.06
2023-03-27T20:11:47.723Z,96888.78
2023-03-27T20:14:14.657Z,96893.28
2023-03-27T20:16:41.569Z,96889.09
2023-03-27T20:19:09.226Z,96889.97
2023-03-27T20:21:39.381Z,96902.84
2023-03-27T20:24:09.825Z,96886.94
2023-03-27T20:26:41.390Z,96895.69
2023-03-27T20:29:14.850Z,96893.00
2023-03-27T20:31:42.185Z,96887.19
2023-03-27T20:34:09.643Z,96886.38
2023-03-27T20:36:38.977Z,96883.41
2023-03-27T20:39:08.254Z,96887.25
2023-03-27T20:41:39.307Z,96890.25
2023-03-27T20:44:15.560Z,96893.53
2023-03-27T20:46:47.684Z,96895.19
2023-03-27T20:49:39.827Z,96897.47
2023-03-27T20:52:08.838Z,96888.66
2023-03-27T20:54:36.372Z,96902.19
2023-03-27T20:57:04.380Z,96898.91
2023-03-27T20:59:32.904Z,96898.59
2023-03-27T21:02:00.539Z,96903.94
2023-03-27T21:04:29.615Z,96903.28
2023-03-27T21:06:56.397Z,96899.31
2023-03-27T21:09:25.288Z,96894.13
2023-03-27T21:11:53.398Z,96907.38
2023-03-27T21:14:20.550Z,96906.13
2023-03-27T21:16:47.617Z,96912.72
2023-03-27T21:19:14.611Z,96905.88
2023-03-27T21:21:41.516Z,96917.66
2023-03-27T21:24:08.370Z,96910.00
2023-03-27T21:26:35.991Z,96907.53
2023-03-27T21:29:03.353Z,96913.03
2023-03-27T21:31:30.576Z,96919.44
2023-03-27T21:33:57.809Z,96924.22
2023-03-27T21:36:26.444Z,96928.88
2023-03-27T21:38:55.148Z,96921.50
2023-03-27T21:41:22.302Z,96921.78
2023-03-27T21:43:49.332Z,96925.31
2023-03-27T21:46:16.207Z,96929.84
2023-03-27T21:48:44.728Z,96936.81
2023-03-27T21:51:11.719Z,96934.38
2023-03-27T21:53:38.670Z,96933.13
2023-03-27T21:56:06.006Z,96939.28
2023-03-27T21:58:32.873Z,96937.63
2023-03-27T22:01:01.130Z,96953.09
2023-03-27T22:03:29.253Z,96940.94
2023-03-27T22:08:37.514Z,96950.50
2023-03-27T22:11:04.574Z,96940.63
2023-03-27T22:13:31.544Z,96946.25
2023-03-27T22:15:58.613Z,96946.91
2023-03-27T22:18:25.875Z,96948.56
2023-03-27T22:20:52.777Z,96955.69
2023-03-27T22:23:19.624Z,96963.47
2023-03-27T22:25:54.385Z,96959.47
2023-03-27T22:28:21.309Z,96968.22
2023-03-27T22:30:48.213Z,96967.16
2023-03-27T22:33:15.344Z,96973.03
2023-03-27T22:35:48.973Z,96970.28
2023-03-27T22:38:16.611Z,96970.72
2023-03-27T22:40:44.183Z,96977.25
2023-03-27T22:43:11.162Z,96977.28
2023-03-27T22:45:50.184Z,96987.88
2023-03-27T22:48:17.108Z,96987.25
2023-03-27T22:50:44.258Z,96986.03
2023-03-27T22:53:11.321Z,96998.47
2023-03-27T22:55:38.232Z,96989.84
2023-03-27T22:58:05.233Z,96996.16
2023-03-27T23:00:32.032Z,97001.59
2023-03-27T23:02:58.907Z,96999.13
2023-03-27T23:05:26.167Z,96999.16
2023-03-27T23:07:53.019Z,97013.47
2023-03-27T23:10:19.814Z,96998.34
2023-03-27T23:12:46.668Z,96995.47
2023-03-27T23:15:13.521Z,97000.66
2023-03-27T23:17:40.383Z,97010.06
2023-03-27T23:20:07.897Z,97014.44
2023-03-27T23:22:34.730Z,97010.88
2023-03-27T23:25:01.543Z,97018.78
2023-03-27T23:27:28.528Z,97025.09
2023-03-27T23:29:55.342Z,97030.00
2023-03-27T23:32:22.406Z,97030.53
2023-03-27T23:34:49.231Z,97035.47
2023-03-27T23:37:16.095Z,97035.47
2023-03-27T23:39:42.874Z,97033.59
2023-03-27T23:42:09.732Z,97034.13
2023-03-27T23:44:36.561Z,97038.50
2023-03-27T23:47:03.447Z,97047.78
2023-03-27T23:49:30.329Z,97039.56
2023-03-27T23:51:57.305Z,97035.78
2023-03-27T23:54:24.206Z,97040.97
2023-03-27T23:56:51.508Z,97043.03
2023-03-27T23:59:18.322Z,97045.91
